»·PEaware :: UAL457 KMSO-KSUN

UAL457 :: KMSO-KSUN

FLIGHT INFORMATION

Flight Status: Arrived
Operator:
United Airlines
More flights by this operator :: More flights under this callsign
Pilot: Alan S. (10569)
Aircraft: BOEING 737-200
(B732)
More flights by this aircraft type
Origin: KMSO Missoula Intl
United States
Destination: KSUN Friedman Meml
United States
More flights between these airports :: More routes between these airports
Route: +LKT V113 PLUTO V113 BOI V444 SOLDE
File this flight plan on PilotEdge
Remarks:
Altitude:
(Current/Filed)
28,000ft
Speed:
(Current/Filed)
437kts
Departed: 12-Jan-18 03:48 PM
Arrived: 12-Jan-18 04:45 PM
Distance/Time
Traveled:
205nm/0:57
Distance/Time
To Go:
Arrived

Flight Plot

Page will automatically refresh every two minutes.

Flight plan parsing failed; only flown route is shown


Map Options




Map Legend


Flown Route
Filed Route
Departure Airport
Arrival Airport
Navaid (VOR, NDB)
Fix

Horizontal Profiles

Position Reports

Time Latitude Longitude Heading Altitude Ground
Speed
12-Jan-18 14:50 46.918062 -114.083619 352 3204ft 0kts
12-Jan-18 14:51 46.918062 -114.083619 352 3204ft 0kts
12-Jan-18 14:52 46.918062 -114.083619 352 3204ft 0kts
12-Jan-18 14:53 46.918062 -114.083619 352 3204ft 0kts
12-Jan-18 14:54 46.918062 -114.083619 352 3204ft 0kts
12-Jan-18 14:55 46.918062 -114.083619 352 3204ft 0kts
12-Jan-18 14:56 46.918062 -114.083619 352 3204ft 0kts
12-Jan-18 14:57 46.918062 -114.083619 352 3204ft 0kts
12-Jan-18 14:58 46.918062 -114.083619 352 3204ft 0kts
12-Jan-18 14:59 46.918062 -114.083619 352 3204ft 0kts
12-Jan-18 15:00 46.918062 -114.083619 352 3204ft 0kts
12-Jan-18 15:01 46.918062 -114.083619 352 3204ft 0kts
12-Jan-18 15:02 46.918062 -114.083619 352 3204ft 0kts
12-Jan-18 15:03 46.918062 -114.083619 352 3204ft 0kts
12-Jan-18 15:04 46.918062 -114.083619 352 3204ft 0kts
12-Jan-18 15:05 46.918062 -114.083619 352 3204ft 0kts
12-Jan-18 15:06 46.918062 -114.083619 352 3204ft 0kts
12-Jan-18 15:07 46.918062 -114.083619 352 3204ft 0kts
12-Jan-18 15:08 46.918062 -114.083619 352 3204ft 0kts
12-Jan-18 15:09 46.918062 -114.083619 352 3204ft 0kts
12-Jan-18 15:10 46.918062 -114.083619 352 3204ft 0kts
12-Jan-18 15:11 46.918062 -114.083619 352 3204ft 0kts
12-Jan-18 15:12 46.918062 -114.083619 352 3204ft 0kts
12-Jan-18 15:13 46.918062 -114.083619 352 3204ft 0kts
12-Jan-18 15:14 46.918062 -114.083619 352 3204ft 0kts
12-Jan-18 15:15 46.918062 -114.083619 352 3204ft 0kts
12-Jan-18 15:16 46.918062 -114.083619 352 3204ft 0kts
12-Jan-18 15:17 46.918062 -114.083619 352 3204ft 0kts
12-Jan-18 15:18 46.918062 -114.083619 352 3204ft 0kts
12-Jan-18 15:19 46.918062 -114.083619 352 3204ft 0kts
12-Jan-18 15:20 46.918062 -114.083619 352 3204ft 0kts
12-Jan-18 15:21 46.918062 -114.083619 352 3204ft 0kts
12-Jan-18 15:22 46.918062 -114.083619 352 3204ft 0kts
12-Jan-18 15:23 46.918062 -114.083619 352 3204ft 0kts
12-Jan-18 15:24 46.918062 -114.083619 352 3204ft 0kts
12-Jan-18 15:25 46.918062 -114.083619 352 3204ft 0kts
12-Jan-18 15:26 46.918062 -114.083619 352 3204ft 0kts
12-Jan-18 15:27 46.918062 -114.083619 352 3204ft 0kts
12-Jan-18 15:28 46.918062 -114.083619 352 3204ft 0kts
12-Jan-18 15:29 46.918062 -114.083619 352 3204ft 0kts
12-Jan-18 15:30 46.918062 -114.083619 352 3204ft 0kts
12-Jan-18 15:31 46.918062 -114.083619 352 3204ft 0kts
12-Jan-18 15:32 46.918062 -114.083619 352 3204ft 0kts
12-Jan-18 15:33 46.918062 -114.083619 352 3204ft 0kts
12-Jan-18 15:34 46.918062 -114.083619 352 3203ft 0kts
12-Jan-18 15:35 46.918062 -114.083619 352 3203ft 0kts
12-Jan-18 15:36 46.918062 -114.083619 352 3203ft 0kts
12-Jan-18 15:37 46.918062 -114.083619 352 3203ft 0kts
12-Jan-18 15:38 46.917989 -114.083625 40 3203ft 1kts
12-Jan-18 15:39 46.917521 -114.084151 36 3203ft 2kts
12-Jan-18 15:40 46.917231 -114.084237 310 3203ft 1kts
12-Jan-18 15:41 46.917223 -114.084223 310 3203ft 0kts
12-Jan-18 15:42 46.917223 -114.084223 310 3203ft 0kts
12-Jan-18 15:43 46.917236 -114.084246 310 3203ft 0kts
12-Jan-18 15:44 46.919117 -114.087517 308 3203ft 17kts
12-Jan-18 15:45 46.920065 -114.089110 311 3203ft 4kts
12-Jan-18 15:46 46.920791 -114.091225 216 3203ft 9kts
12-Jan-18 15:47 46.919514 -114.093768 309 3203ft 5kts
12-Jan-18 15:48 46.922137 -114.098303 310 3203ft 17kts
12-Jan-18 15:49 46.924486 -114.102306 310 3203ft 8kts
12-Jan-18 15:50 46.925276 -114.103698 311 3203ft 3kts
12-Jan-18 15:51 46.925647 -114.105270 218 3203ft 0kts
12-Jan-18 15:52 46.925647 -114.105270 218 3203ft 0kts
12-Jan-18 15:53 46.925513 -114.105428 221 3203ft 4kts
12-Jan-18 15:54 46.917960 -114.094793 131 3204ft 110kts
12-Jan-18 15:55 46.884330 -114.057585 178 4649ft 183kts
12-Jan-18 15:56 46.832140 -114.068320 167 6090ft 226kts
12-Jan-18 15:57 46.758832 -114.049531 171 7881ft 297kts
12-Jan-18 15:58 46.677420 -114.033667 175 10839ft 304kts
12-Jan-18 15:59 46.591133 -114.017978 178 12820ft 336kts
12-Jan-18 16:00 46.500757 -114.036375 205 14838ft 336kts
12-Jan-18 16:01 46.410699 -114.075439 204 16668ft 349kts
12-Jan-18 16:02 46.326847 -114.137547 203 18292ft 362kts
12-Jan-18 16:03 46.222204 -114.126919 188 19701ft 389kts
12-Jan-18 16:04 46.113109 -114.130717 190 21105ft 399kts
12-Jan-18 16:05 46.002677 -114.138587 193 22449ft 408kts
12-Jan-18 16:06 45.890870 -114.149419 192 23633ft 420kts
12-Jan-18 16:07 45.775605 -114.159146 186 24631ft 437kts
12-Jan-18 16:08 45.653985 -114.147604 184 25572ft 450kts
12-Jan-18 16:09 45.529997 -114.135054 184 26547ft 455kts
12-Jan-18 16:10 45.403813 -114.122375 184 27312ft 465kts
12-Jan-18 16:11 45.275678 -114.109507 184 28044ft 473kts
12-Jan-18 16:12 45.143275 -114.096334 183 28363ft 484kts
12-Jan-18 16:13 45.008976 -114.085856 194 28354ft 479kts
12-Jan-18 16:14 44.895276 -114.159318 213 28359ft 461kts
12-Jan-18 16:15 44.779674 -114.230190 211 28318ft 465kts
12-Jan-18 16:16 44.662114 -114.301972 211 28315ft 467kts
12-Jan-18 16:17 44.543924 -114.376120 221 28305ft 458kts
12-Jan-18 16:18 44.451345 -114.489149 240 28324ft 434kts
12-Jan-18 16:19 44.378912 -114.622470 243 28317ft 432kts
12-Jan-18 16:20 44.310006 -114.751458 242 28349ft 432kts
12-Jan-18 16:21 44.242477 -114.878405 242 27876ft 419kts
12-Jan-18 16:22 44.170584 -115.003038 223 26865ft 431kts
12-Jan-18 16:23 44.049906 -115.038970 192 26005ft 452kts
12-Jan-18 16:24 43.927133 -115.056249 192 25171ft 441kts
12-Jan-18 16:25 43.812700 -115.072535 192 24078ft 431kts
12-Jan-18 16:26 43.696901 -115.089394 192 22980ft 419kts
12-Jan-18 16:27 43.583153 -115.106459 192 21704ft 407kts
12-Jan-18 16:28 43.472276 -115.111539 164 20444ft 414kts
12-Jan-18 16:29 43.405407 -115.029892 132 19757ft 405kts
12-Jan-18 16:30 43.321560 -114.895538 128 18139ft 391kts
12-Jan-18 16:31 43.280034 -114.760599 103 16995ft 373kts
12-Jan-18 16:32 43.261516 -114.649674 99 16979ft 344kts
12-Jan-18 16:33 43.279803 -114.531890 74 16977ft 296kts
12-Jan-18 16:34 43.297648 -114.416351 75 15977ft 300kts
12-Jan-18 16:35 43.312103 -114.326738 75 15244ft 293kts
12-Jan-18 16:36 43.337627 -114.226712 34 14067ft 278kts
12-Jan-18 16:37 43.395938 -114.249497 280 12887ft 243kts
12-Jan-18 16:38 43.355214 -114.293142 144 11890ft 245kts
12-Jan-18 16:39 43.313664 -114.216092 162 10572ft 252kts
12-Jan-18 16:40 43.245302 -114.216637 179 9319ft 253kts
12-Jan-18 16:41 43.180565 -114.233958 214 8778ft 233kts
12-Jan-18 16:42 43.126413 -114.274589 164 8619ft 220kts
12-Jan-18 16:43 43.141538 -114.226477 338 8646ft 220kts
12-Jan-18 16:44 43.200473 -114.252442 359 8017ft 231kts
12-Jan-18 16:45 43.263018 -114.236381 13 7918ft 221kts
12-Jan-18 16:46 43.318094 -114.227780 350 7965ft 194kts
12-Jan-18 16:47 43.369253 -114.233604 346 7457ft 190kts
12-Jan-18 16:48 43.415957 -114.243497 354 6539ft 149kts
12-Jan-18 16:49 43.455332 -114.251455 341 5879ft 139kts
12-Jan-18 16:50 43.487237 -114.279550 322 5443ft 135kts
12-Jan-18 16:51 43.507057 -114.298729 326 5299ft 10kts
12-Jan-18 16:52 43.507720 -114.300718 179 5299ft 5kts
12-Jan-18 16:53 43.505954 -114.299363 175 5299ft 2kts

Navigation Log

Ident Type
Flight plan parsing failed, navigation log unavailable